Time;durP1;ratioP1;P1;durP2;ratioP2;P2;SDS_P1;SDS_P2;PMS_P1;PMS_P2;Temp;Humidity;BMP_temperature;BMP_pressure;BME280_temperature;BME280_humidity;BME280_pressure;Samples;Min_cycle;Max_cycle;Signal;HPM_P1;HPM_P2
2021/07/16 00:00:18;;;;;;;7.28;2.75;;;;;;;27.72;38.63;100216.66;5044834;28;20128;-65
2021/07/16 00:02:45;;;;;;;3.55;2.50;;;;;;;27.65;38.74;100218.28;5039750;28;20440;-75
2021/07/16 00:05:13;;;;;;;6.38;2.88;;;;;;;27.69;39.12;100228.94;5033367;28;20398;-59
2021/07/16 00:07:41;;;;;;;4.20;3.03;;;;;;;27.67;38.75;100214.19;5050842;28;20132;-63
2021/07/16 00:10:11;;;;;;;4.65;2.97;;;;;;;27.35;39.11;100180.47;5034622;28;20038;-68
2021/07/16 00:12:38;;;;;;;6.40;2.90;;;;;;;27.60;39.22;100220.75;5039016;28;20048;-65
2021/07/16 00:15:06;;;;;;;5.60;3.35;;;;;;;27.44;39.40;100203.06;5031028;28;20405;-63
2021/07/16 00:17:33;;;;;;;8.10;3.65;;;;;;;27.43;40.31;100228.06;5030671;28;20188;-62
2021/07/16 00:20:00;;;;;;;5.43;3.30;;;;;;;27.13;39.99;100202.53;5036153;28;20080;-63
2021/07/16 00:22:27;;;;;;;3.47;2.38;;;;;;;27.09;40.32;100211.06;5045077;28;20099;-62
2021/07/16 00:24:54;;;;;;;6.18;3.92;;;;;;;27.05;40.59;100230.28;5039837;28;20081;-63
2021/07/16 00:27:21;;;;;;;8.85;4.90;;;;;;;26.86;41.10;100222.81;5041999;28;20128;-63
2021/07/16 00:29:48;;;;;;;10.68;5.20;;;;;;;26.65;41.28;100200.56;5035421;28;20135;-62
2021/07/16 00:32:15;;;;;;;8.18;4.82;;;;;;;26.60;41.84;100226.72;5036015;28;20197;-63
2021/07/16 00:34:42;;;;;;;14.70;5.72;;;;;;;26.43;42.21;100210.22;5046682;28;20481;-65
2021/07/16 00:37:09;;;;;;;8.10;4.90;;;;;;;26.15;42.13;100183.00;5047796;28;20079;-67
2021/07/16 00:39:37;;;;;;;8.95;5.18;;;;;;;26.11;42.19;100182.13;5035236;28;20136;-64
2021/07/16 00:42:04;;;;;;;7.43;3.95;;;;;;;26.28;42.13;100219.88;5034592;28;20045;-67
2021/07/16 00:44:34;;;;;;;11.93;6.07;;;;;;;26.23;42.58;100206.78;5047954;28;20183;-61
2021/07/16 00:47:02;;;;;;;6.85;5.03;;;;;;;26.14;42.41;100204.22;5041151;28;20461;-63
2021/07/16 00:49:30;;;;;;;9.25;5.13;;;;;;;26.15;42.32;100220.19;5044426;28;20124;-63
2021/07/16 00:51:57;;;;;;;10.02;4.53;;;;;;;26.13;42.37;100214.03;5041246;28;20588;-64
2021/07/16 00:54:25;;;;;;;6.35;3.42;;;;;;;26.10;42.87;100219.72;5035712;28;20045;-63
2021/07/16 00:56:52;;;;;;;7.55;4.28;;;;;;;25.99;42.78;100199.59;5034591;28;20052;-64
2021/07/16 00:59:19;;;;;;;5.28;3.67;;;;;;;25.99;42.82;100213.91;5034616;28;20494;-63
2021/07/16 01:01:47;;;;;;;6.97;3.33;;;;;;;25.85;42.61;100193.75;5035770;28;20502;-63
2021/07/16 01:04:14;;;;;;;8.15;4.07;;;;;;;25.90;42.85;100214.22;5041789;28;20108;-63
2021/07/16 01:06:41;;;;;;;7.30;3.70;;;;;;;25.90;42.85;100221.97;5038906;28;20054;-65
2021/07/16 01:09:08;;;;;;;6.05;3.50;;;;;;;25.87;42.77;100214.19;5037178;28;20079;-67
2021/07/16 01:11:35;;;;;;;5.93;3.05;;;;;;;25.85;42.44;100216.63;5033071;28;20493;-66
2021/07/16 01:14:02;;;;;;;6.88;3.13;;;;;;;25.76;42.90;100208.31;5039934;28;20130;-67
2021/07/16 01:16:30;;;;;;;7.40;3.00;;;;;;;25.65;42.68;100198.81;5035147;28;20094;-66
2021/07/16 01:18:58;;;;;;;9.07;3.40;;;;;;;25.68;42.90;100216.00;5040566;28;20551;-70
2021/07/16 01:21:28;;;;;;;5.30;2.97;;;;;;;25.59;43.00;100204.03;5062120;28;20068;-70
2021/07/16 01:23:55;;;;;;;4.80;2.95;;;;;;;25.47;42.60;100195.72;5049812;28;20076;-71
2021/07/16 01:26:22;;;;;;;8.32;2.83;;;;;;;25.56;42.95;100215.44;5043590;28;20458;-71
2021/07/16 01:28:51;;;;;;;4.43;2.83;;;;;;;25.32;42.31;100174.72;5044606;28;20144;-72
2021/07/16 01:31:19;;;;;;;8.00;2.55;;;;;;;25.50;42.20;100214.97;5042111;28;20460;-72
2021/07/16 01:33:46;;;;;;;4.45;2.60;;;;;;;25.52;42.22;100223.97;5036906;28;20038;-73
2021/07/16 01:36:13;;;;;;;4.22;2.70;;;;;;;24.82;42.30;100129.19;5053267;28;20513;-73
2021/07/16 01:38:40;;;;;;;9.45;2.80;;;;;;;25.40;42.23;100212.78;5050669;28;20080;-73
2021/07/16 01:41:07;;;;;;;4.78;2.50;;;;;;;25.38;42.39;100212.38;5040774;28;20527;-67
2021/07/16 01:43:34;;;;;;;5.20;2.40;;;;;;;25.36;42.49;100217.66;5035990;28;20125;-67
2021/07/16 01:46:01;;;;;;;5.63;2.92;;;;;;;25.32;42.68;100220.47;5040111;28;20465;-72
2021/07/16 01:48:30;;;;;;;4.40;2.90;;;;;;;25.24;42.20;100202.41;5038288;28;20051;-67
2021/07/16 01:50:56;;;;;;;4.60;2.47;;;;;;;25.16;42.40;100212.13;5043124;28;20077;-68
2021/07/16 01:53:23;;;;;;;4.30;2.13;;;;;;;25.17;42.20;100216.59;5047118;28;20124;-75
2021/07/16 01:55:50;;;;;;;4.97;2.72;;;;;;;25.17;42.44;100219.47;5039382;28;20473;-77
2021/07/16 01:58:18;;;;;;;4.10;2.33;;;;;;;24.99;42.21;100196.34;5037423;28;20504;-77
2021/07/16 02:00:47;;;;;;;3.88;2.40;;;;;;;25.11;42.49;100214.44;5038584;28;20508;-77
2021/07/16 02:03:16;;;;;;;4.97;2.42;;;;;;;24.86;42.22;100176.97;5042170;28;20116;-77
2021/07/16 02:05:45;;;;;;;5.03;2.65;;;;;;;25.09;42.22;100217.69;5032789;28;20053;-77
2021/07/16 02:08:24;;;;;;;3.75;1.88;;;;;;;25.08;41.60;100216.03;5036454;28;20140;-77
2021/07/16 02:10:54;;;;;;;7.15;2.22;;;;;;;25.11;41.52;100218.16;5033999;28;20049;-77
2021/07/16 02:13:21;;;;;;;4.75;2.72;;;;;;;25.14;40.82;100225.97;5039688;28;20556;-77
2021/07/16 02:15:50;;;;;;;3.53;2.20;;;;;;;25.18;40.90;100215.38;5034072;28;20128;-77
2021/07/16 02:18:18;;;;;;;4.63;1.83;;;;;;;25.28;40.28;100220.41;5034574;28;20056;-77
2021/07/16 02:20:46;;;;;;;3.78;2.10;;;;;;;25.37;39.74;100222.16;5039415;28;20137;-77
2021/07/16 02:23:16;;;;;;;3.78;2.03;;;;;;;25.41;39.49;100208.75;5051540;28;20497;-66
2021/07/16 02:25:43;;;;;;;4.05;1.88;;;;;;;25.47;39.08;100215.75;5035747;28;20464;-66
2021/07/16 02:28:15;;;;;;;2.42;1.50;;;;;;;25.47;38.29;100208.00;5033055;28;20159;-66
2021/07/16 02:30:42;;;;;;;4.65;1.90;;;;;;;25.49;37.93;100197.00;5033702;28;20191;-65
2021/07/16 02:33:09;;;;;;;2.78;1.70;;;;;;;25.53;37.09;100199.88;5045908;28;20129;-66
2021/07/16 02:35:36;;;;;;;3.35;1.83;;;;;;;25.61;37.16;100197.97;5039145;28;20140;-66
2021/07/16 02:38:04;;;;;;;2.63;1.73;;;;;;;25.65;36.84;100199.63;5043705;28;20080;-67
2021/07/16 02:40:33;;;;;;;3.13;1.65;;;;;;;25.78;36.51;100203.03;5032026;28;20041;-68
2021/07/16 02:43:00;;;;;;;2.83;1.63;;;;;;;25.85;36.06;100205.19;5033538;28;20088;-68
2021/07/16 02:45:27;;;;;;;2.42;1.70;;;;;;;25.92;35.30;100199.53;5031513;28;20128;-68
2021/07/16 02:47:54;;;;;;;3.03;1.42;;;;;;;25.90;34.81;100199.09;5032818;28;20390;-68
2021/07/16 02:50:34;;;;;;;2.83;2.05;;;;;;;25.99;34.49;100188.16;5043591;28;20044;-68
2021/07/16 02:53:10;;;;;;;2.45;1.25;;;;;;;26.07;33.83;100197.63;5045727;28;20524;-67
2021/07/16 02:55:39;;;;;;;2.97;1.80;;;;;;;26.14;33.59;100198.50;5032131;28;20124;-67
2021/07/16 02:58:07;;;;;;;1.60;1.13;;;;;;;26.19;32.81;100183.84;5032695;28;20128;-67
2021/07/16 03:00:35;;;;;;;2.22;1.42;;;;;;;26.25;33.07;100198.59;5031715;28;20049;-67
2021/07/16 03:03:03;;;;;;;2.97;1.63;;;;;;;26.03;32.61;100157.53;5032773;28;20417;-71
2021/07/16 03:05:35;;;;;;;3.67;1.58;;;;;;;26.27;32.59;100189.63;5035373;28;20045;-71
2021/07/16 03:08:06;;;;;;;2.78;1.60;;;;;;;26.26;32.48;100193.69;5032654;28;20088;-67
2021/07/16 03:10:39;;;;;;;2.83;1.50;;;;;;;26.29;31.99;100192.91;5036453;28;20128;-68
2021/07/16 03:13:09;;;;;;;2.72;1.55;;;;;;;26.16;31.73;100178.09;5042479;28;20468;-67
2021/07/16 03:15:36;;;;;;;2.55;1.65;;;;;;;26.18;32.03;100187.91;5039077;28;20071;-71
2021/07/16 03:18:05;;;;;;;3.35;1.50;;;;;;;26.18;31.92;100192.81;5044916;28;20041;-71
2021/07/16 03:20:34;;;;;;;2.40;1.50;;;;;;;26.02;32.18;100167.34;5049291;28;20084;-70
2021/07/16 03:23:01;;;;;;;;;;;;;;;25.91;31.77;100195.00;5044239;28;20103;-66
2021/07/16 03:25:29;;;;;;;7.63;1.35;;;;;;;25.99;31.71;100185.28;5036551;28;19935;-65
2021/07/16 03:27:56;;;;;;;1.80;1.15;;;;;;;26.15;31.04;100205.88;5032087;28;20136;-65
2021/07/16 03:30:26;;;;;;;2.20;1.38;;;;;;;26.19;31.11;100195.28;5030929;28;20083;-66
2021/07/16 03:32:54;;;;;;;3.97;1.73;;;;;;;26.07;31.46;100189.03;5035730;28;20136;-66
2021/07/16 03:35:21;;;;;;;2.38;1.30;;;;;;;26.12;30.89;100200.94;5042826;28;20553;-65
2021/07/16 03:37:49;;;;;;;1.63;1.15;;;;;;;26.03;30.34;100185.31;5035334;28;20927;-69
2021/07/16 03:40:18;;;;;;;1.60;0.90;;;;;;;26.26;29.84;100196.53;5032785;28;20119;-69
2021/07/16 03:42:45;;;;;;;2.33;1.27;;;;;;;26.18;29.57;100170.72;5039741;28;20085;-62
2021/07/16 03:45:14;;;;;;;7.05;0.88;;;;;;;26.46;28.78;100201.66;5033586;28;20136;-62
2021/07/16 03:47:42;;;;;;;0.73;0.57;;;;;;;26.58;28.48;100193.97;5037915;28;20581;-61
2021/07/16 03:50:12;;;;;;;1.73;0.83;;;;;;;26.66;27.96;100184.19;5048245;28;20120;-61
2021/07/16 03:52:40;;;;;;;1.27;0.77;;;;;;;26.70;27.67;100185.03;5034575;28;20056;-62
2021/07/16 03:55:09;;;;;;;1.13;0.90;;;;;;;26.63;27.38;100182.97;5039349;28;20434;-62
2021/07/16 03:57:40;;;;;;;4.55;1.33;;;;;;;26.74;26.85;100196.56;5041165;28;20121;-61
2021/07/16 04:00:08;;;;;;;1.55;0.95;;;;;;;26.83;27.23;100200.69;5031509;28;20129;-61
2021/07/16 04:02:35;;;;;;;0.43;0.40;;;;;;;26.85;26.93;100200.28;5031432;28;20129;-60
2021/07/16 04:05:02;;;;;;;0.95;0.40;;;;;;;26.86;26.34;100204.78;5041385;28;20053;-62
2021/07/16 04:07:31;;;;;;;1.05;0.73;;;;;;;26.95;26.18;100205.25;5040313;28;20049;-62
2021/07/16 04:09:58;;;;;;;1.38;0.63;;;;;;;27.03;26.14;100220.44;5032792;28;20490;-64
2021/07/16 04:12:24;;;;;;;1.17;0.95;;;;;;;26.93;25.91;100187.63;5038570;28;20556;-64
2021/07/16 04:14:54;;;;;;;1.45;0.80;;;;;;;27.00;26.06;100202.00;5031838;28;20087;-64
2021/07/16 04:17:23;;;;;;;0.82;0.73;;;;;;;27.04;25.52;100205.72;5031158;28;20085;-64
2021/07/16 04:19:50;;;;;;;1.35;0.98;;;;;;;27.02;25.82;100196.72;5033165;28;20576;-64
2021/07/16 04:22:19;;;;;;;1.95;1.13;;;;;;;27.04;25.65;100217.16;5046625;28;20131;-68
2021/07/16 04:24:46;;;;;;;0.73;0.50;;;;;;;26.94;25.80;100207.31;5045461;28;20163;-67
2021/07/16 04:27:13;;;;;;;2.28;1.13;;;;;;;27.07;25.66;100222.09;5034690;28;20144;-64
2021/07/16 04:29:41;;;;;;;0.95;0.63;;;;;;;26.91;25.72;100192.97;5032463;28;20072;-61
2021/07/16 04:32:10;;;;;;;0.80;0.55;;;;;;;26.95;25.96;100213.84;5030778;28;20324;-62
2021/07/16 04:34:39;;;;;;;0.47;0.47;;;;;;;26.96;25.62;100221.22;5034003;28;20072;-61
2021/07/16 04:37:07;;;;;;;1.85;0.85;;;;;;;26.96;25.91;100204.03;5039948;28;20045;-63
2021/07/16 04:39:35;;;;;;;1.33;0.90;;;;;;;26.98;25.44;100221.66;5043070;28;20051;-63
2021/07/16 04:42:03;;;;;;;1.20;0.75;;;;;;;26.93;26.03;100222.84;5037607;28;20247;-61
2021/07/16 04:44:33;;;;;;;0.70;0.55;;;;;;;26.93;25.93;100222.03;5036394;28;20116;-60
2021/07/16 04:47:00;;;;;;;3.40;1.00;;;;;;;26.88;25.64;100226.09;5037542;28;20597;-59
2021/07/16 04:49:28;;;;;;;0.70;0.57;;;;;;;26.89;25.77;100215.47;5034183;28;20046;-64
2021/07/16 04:51:57;;;;;;;0.90;0.70;;;;;;;26.89;25.85;100222.00;5040739;28;20132;-62
2021/07/16 04:54:25;;;;;;;;;;;;;;;26.66;26.09;100224.28;5037666;28;20038;-61
2021/07/16 04:56:51;;;;;;;0.93;0.70;;;;;;;26.77;26.17;100221.50;5034978;28;20004;-61
2021/07/16 04:59:19;;;;;;;4.43;0.98;;;;;;;26.80;25.81;100212.13;5033835;28;20073;-64
2021/07/16 05:01:46;;;;;;;1.25;0.52;;;;;;;26.79;25.90;100222.75;5043413;28;20127;-63
2021/07/16 05:04:16;;;;;;;0.98;0.80;;;;;;;26.81;26.18;100233.84;5036224;28;20053;-65
2021/07/16 05:06:43;;;;;;;0.43;0.40;;;;;;;26.78;25.95;100237.50;5040669;28;20136;-62
2021/07/16 05:09:10;;;;;;;1.70;0.75;;;;;;;26.80;25.96;100229.31;5046170;28;20137;-61
2021/07/16 05:11:37;;;;;;;1.65;1.05;;;;;;;26.77;25.96;100230.09;5050145;28;20079;-62
2021/07/16 05:14:04;;;;;;;0.52;0.52;;;;;;;26.76;26.00;100228.47;5056799;28;20143;-63
2021/07/16 05:16:31;;;;;;;4.35;1.83;;;;;;;26.75;26.21;100239.09;5040873;28;20073;-62
2021/07/16 05:18:58;;;;;;;1.33;0.65;;;;;;;26.60;26.42;100223.03;5050620;28;20052;-62
2021/07/16 05:21:25;;;;;;;1.27;0.80;;;;;;;26.70;26.29;100245.19;5055468;28;20569;-72
2021/07/16 05:23:52;;;;;;;1.17;1.08;;;;;;;26.75;26.43;100238.28;5044696;28;20107;-70
2021/07/16 05:26:19;;;;;;;0.50;0.50;;;;;;;26.71;26.50;100235.41;5037925;28;20127;-71
2021/07/16 05:28:49;;;;;;;0.95;0.77;;;;;;;26.68;26.23;100237.00;5037121;28;20133;-62
2021/07/16 05:31:19;;;;;;;1.58;1.15;;;;;;;26.76;26.50;100240.75;5039099;28;20049;-63
2021/07/16 05:33:46;;;;;;;1.95;1.00;;;;;;;26.67;26.49;100237.41;5040909;28;20045;-63
2021/07/16 05:36:14;;;;;;;2.08;1.10;;;;;;;26.79;26.49;100244.84;5035701;28;20457;-62
2021/07/16 05:38:41;;;;;;;2.15;1.08;;;;;;;26.73;27.17;100250.13;5037565;28;20125;-63
2021/07/16 05:41:08;;;;;;;2.00;1.20;;;;;;;26.87;27.27;100255.97;5044635;28;20077;-64
2021/07/16 05:43:36;;;;;;;1.70;1.10;;;;;;;26.77;28.27;100247.28;5037526;28;20132;-63
2021/07/16 05:46:03;;;;;;;3.08;0.80;;;;;;;26.82;28.42;100244.88;5028071;28;20076;-59
2021/07/16 05:48:33;;;;;;;0.63;0.60;;;;;;;26.80;28.10;100244.44;5046996;28;20107;-59
2021/07/16 05:51:01;;;;;;;1.02;0.88;;;;;;;26.98;28.97;100263.81;5042996;28;20170;-60
2021/07/16 05:53:29;;;;;;;3.05;1.45;;;;;;;26.97;29.06;100251.50;5048065;28;20045;-63
2021/07/16 05:55:56;;;;;;;2.55;1.15;;;;;;;27.06;28.73;100252.00;5041363;28;20049;-61
2021/07/16 05:58:22;;;;;;;1.45;1.20;;;;;;;27.16;28.77;100268.47;5038469;28;20073;-61
2021/07/16 06:00:49;;;;;;;1.98;1.13;;;;;;;27.29;28.83;100268.13;5041821;28;20129;-60
2021/07/16 06:03:16;;;;;;;4.07;1.20;;;;;;;27.24;27.96;100260.72;5039012;28;20405;-60
2021/07/16 06:05:43;;;;;;;1.50;0.73;;;;;;;27.33;28.88;100264.06;5034119;28;20046;-60
2021/07/16 06:08:10;;;;;;;1.92;1.02;;;;;;;27.38;28.58;100274.31;5040089;28;20103;-60
2021/07/16 06:10:37;;;;;;;2.28;1.30;;;;;;;27.40;28.17;100281.28;5035662;28;20049;-58
2021/07/16 06:13:04;;;;;;;1.65;1.13;;;;;;;27.49;27.47;100265.75;5034514;28;20136;-59
2021/07/16 06:15:31;;;;;;;1.65;1.13;;;;;;;27.51;27.99;100267.00;5037872;28;20128;-58
2021/07/16 06:18:02;;;;;;;0.90;0.77;;;;;;;27.38;26.98;100265.69;5033074;28;20048;-59
2021/07/16 06:20:29;;;;;;;1.40;0.93;;;;;;;27.64;28.19;100274.00;5042742;28;20099;-59
2021/07/16 06:22:56;;;;;;;1.30;0.77;;;;;;;27.70;27.71;100282.25;5030814;28;20124;-60
2021/07/16 06:25:23;;;;;;;1.27;0.63;;;;;;;27.60;26.97;100255.97;5033427;28;20132;-59
2021/07/16 06:27:50;;;;;;;1.27;1.17;;;;;;;27.86;27.58;100268.38;5034637;28;20137;-60
2021/07/16 06:30:17;;;;;;;0.55;0.55;;;;;;;27.86;26.54;100268.38;5032942;28;20128;-59
2021/07/16 06:32:45;;;;;;;1.50;0.90;;;;;;;27.70;27.33;100239.22;5041604;28;20045;-59
2021/07/16 06:35:13;;;;;;;1.02;0.65;;;;;;;27.97;27.08;100274.16;5043547;28;20045;-60
2021/07/16 06:37:40;;;;;;;2.75;1.02;;;;;;;28.14;26.62;100264.78;5050440;28;20136;-59
2021/07/16 06:40:07;;;;;;;5.60;1.40;;;;;;;28.14;26.22;100250.41;5033651;28;20041;-59
2021/07/16 06:42:35;;;;;;;0.95;0.65;;;;;;;28.13;27.10;100270.91;5038696;28;20756;-59
2021/07/16 06:45:03;;;;;;;2.20;1.33;;;;;;;28.29;26.25;100269.28;5035923;28;20314;-59
2021/07/16 06:47:30;;;;;;;0.70;0.53;;;;;;;28.35;26.46;100284.88;5041165;28;20175;-59
2021/07/16 06:49:57;;;;;;;3.03;1.55;;;;;;;28.30;26.41;100265.19;5033494;28;20228;-59
2021/07/16 06:52:29;;;;;;;1.38;0.90;;;;;;;28.37;26.28;100292.25;5033433;28;20053;-59
2021/07/16 06:54:55;;;;;;;2.20;1.50;;;;;;;28.37;26.30;100293.09;5041565;28;20045;-58
2021/07/16 06:57:22;;;;;;;1.50;1.25;;;;;;;28.57;25.61;100282.06;5032608;28;20076;-58
2021/07/16 06:59:49;;;;;;;0.93;0.70;;;;;;;28.49;25.59;100300.53;5030142;28;20061;-59
2021/07/16 07:02:16;;;;;;;2.22;1.33;;;;;;;28.52;24.77;100286.16;5034931;28;20075;-59
2021/07/16 07:04:43;;;;;;;1.73;1.33;;;;;;;28.37;24.94;100287.34;5050554;28;20064;-59
2021/07/16 07:07:10;;;;;;;4.05;1.85;;;;;;;28.45;25.02;100299.72;5049805;28;20452;-59
2021/07/16 07:09:37;;;;;;;2.65;1.45;;;;;;;28.65;25.23;100280.00;5050327;28;20104;-59
2021/07/16 07:12:05;;;;;;;1.73;1.08;;;;;;;28.74;25.41;100283.28;5052930;28;20049;-59
2021/07/16 07:14:32;;;;;;;0.93;0.80;;;;;;;28.79;25.63;100297.25;5047824;28;20123;-59
2021/07/16 07:16:58;;;;;;;1.20;0.95;;;;;;;28.62;26.24;100281.66;5053986;28;20128;-59
2021/07/16 07:19:26;;;;;;;2.17;1.13;;;;;;;28.63;25.45;100265.25;5040873;28;20047;-59
2021/07/16 07:21:53;;;;;;;4.18;1.48;;;;;;;28.91;24.96;100284.50;5048582;28;20481;-60
2021/07/16 07:24:19;;;;;;;2.47;1.42;;;;;;;29.09;24.85;100293.13;5052056;28;20958;-60
2021/07/16 07:26:46;;;;;;;2.30;1.67;;;;;;;29.17;24.60;100298.47;5032398;28;20474;-60
2021/07/16 07:29:13;;;;;;;1.80;1.08;;;;;;;29.06;24.70;100289.03;5031405;28;20148;-58
2021/07/16 07:31:40;;;;;;;1.48;1.33;;;;;;;29.06;25.27;100312.03;5032412;28;20438;-59
2021/07/16 07:34:07;;;;;;;1.88;1.08;;;;;;;29.10;24.76;100289.03;5032456;28;20456;-59
2021/07/16 07:36:33;;;;;;;2.60;1.15;;;;;;;29.15;24.19;100288.59;5032092;28;20084;-59
2021/07/16 07:39:00;;;;;;;1.15;0.85;;;;;;;28.95;25.10;100280.38;5044470;28;20048;-59
2021/07/16 07:41:27;;;;;;;3.30;1.60;;;;;;;29.01;24.26;100296.00;5042156;28;20132;-59
2021/07/16 07:43:56;;;;;;;0.82;0.77;;;;;;;29.04;23.96;100263.56;5035116;28;20077;-59
2021/07/16 07:46:26;;;;;;;1.92;1.27;;;;;;;29.13;24.19;100250.81;5051435;28;20080;-58
2021/07/16 07:48:53;;;;;;;2.00;1.05;;;;;;;29.47;24.14;100309.47;5047470;28;20103;-59
2021/07/16 07:51:21;;;;;;;3.80;1.67;;;;;;;29.60;23.90;100314.78;5037094;28;20072;-58
2021/07/16 07:53:47;;;;;;;5.40;1.25;;;;;;;29.65;23.65;100302.88;5046188;28;20127;-59
2021/07/16 07:56:32;;;;;;;1.15;1.05;;;;;;;29.68;23.88;100296.28;5037217;28;20125;-60
2021/07/16 07:59:00;;;;;;;7.40;1.60;;;;;;;29.60;24.74;100306.97;5064311;28;20077;-59
2021/07/16 08:01:34;;;;;;;1.80;0.82;;;;;;;29.57;24.35;100295.44;5031925;28;20045;-59
2021/07/16 08:04:01;;;;;;;3.25;1.55;;;;;;;29.77;24.14;100299.50;5031886;28;20053;-59
2021/07/16 08:06:29;;;;;;;7.32;1.42;;;;;;;29.73;23.58;100301.59;5031835;28;20053;-61
2021/07/16 08:08:56;;;;;;;2.83;0.90;;;;;;;29.89;24.37;100309.75;5040041;28;20095;-59
2021/07/16 08:11:23;;;;;;;3.65;1.75;;;;;;;29.84;23.57;100292.91;5037180;28;20163;-59
2021/07/16 08:13:50;;;;;;;0.82;0.63;;;;;;;29.79;23.43;100311.44;5035860;28;20455;-60
2021/07/16 08:16:17;;;;;;;3.42;1.73;;;;;;;29.77;23.11;100298.69;5036824;28;20042;-60
2021/07/16 08:18:44;;;;;;;4.20;1.60;;;;;;;29.98;23.51;100316.69;5036042;28;20053;-59
2021/07/16 08:21:11;;;;;;;2.13;1.48;;;;;;;30.01;23.39;100305.56;5050003;28;20084;-59
2021/07/16 08:23:38;;;;;;;2.15;1.13;;;;;;;30.12;24.01;100324.44;5050740;28;20080;-59
2021/07/16 08:26:05;;;;;;;4.50;1.50;;;;;;;30.27;22.90;100322.31;5051731;28;20127;-59
2021/07/16 08:28:32;;;;;;;1.60;0.93;;;;;;;30.32;23.00;100287.28;5033647;28;20085;-59
2021/07/16 08:30:59;;;;;;;1.58;1.15;;;;;;;30.42;23.65;100312.31;5032022;28;20203;-59
2021/07/16 08:33:26;;;;;;;1.88;0.70;;;;;;;30.29;23.40;100314.09;5032483;28;20046;-59
2021/07/16 08:35:53;;;;;;;1.30;1.05;;;;;;;30.44;23.40;100320.56;5031899;28;20140;-59
2021/07/16 08:38:20;;;;;;;2.00;1.10;;;;;;;30.45;23.25;100314.34;5031994;28;20084;-59
2021/07/16 08:40:49;;;;;;;3.15;1.60;;;;;;;30.39;23.00;100301.66;5030199;28;20077;-59
2021/07/16 08:43:18;;;;;;;3.28;1.60;;;;;;;30.64;23.06;100307.22;5034522;28;20577;-59
2021/07/16 08:45:50;;;;;;;3.28;1.88;;;;;;;30.76;22.28;100303.03;5036454;28;20064;-59
2021/07/16 08:48:17;;;;;;;9.48;1.75;;;;;;;30.79;22.24;100295.59;5043412;28;20048;-59
2021/07/16 08:50:44;;;;;;;0.90;0.70;;;;;;;30.62;21.80;100285.84;5049734;28;20053;-59
2021/07/16 08:53:12;;;;;;;3.28;1.38;;;;;;;30.66;21.65;100315.44;5051541;28;20148;-61
2021/07/16 08:55:41;;;;;;;0.77;0.77;;;;;;;30.67;22.19;100308.44;5045011;28;20145;-60
2021/07/16 08:58:10;;;;;;;1.23;1.13;;;;;;;30.60;22.05;100294.06;5038009;28;20084;-59
2021/07/16 09:00:37;;;;;;;5.93;1.63;;;;;;;30.78;22.56;100309.19;5034178;28;20425;-59
2021/07/16 09:03:05;;;;;;;2.53;1.40;;;;;;;31.09;22.27;100304.38;5051237;28;20440;-58
2021/07/16 09:05:37;;;;;;;3.33;1.48;;;;;;;31.29;21.94;100307.47;5041679;28;20080;-59
2021/07/16 09:08:05;;;;;;;;;;;;;;;31.16;21.97;100315.03;5054714;28;20046;-60
2021/07/16 09:10:32;;;;;;;3.22;2.40;;;;;;;31.37;21.37;100314.81;5034521;28;20377;-60
2021/07/16 09:13:01;;;;;;;2.60;1.60;;;;;;;31.61;20.98;100303.41;5033781;28;20168;-60
2021/07/16 09:15:28;;;;;;;;;;;;;;;31.37;21.20;100296.69;5057656;28;20049;-59
2021/07/16 09:18:32;;;;;;;1.98;1.02;;;;;;;31.49;21.78;100296.16;5033655;28;19956;-59
2021/07/16 09:21:02;;;;;;;5.07;1.52;;;;;;;31.85;21.42;100298.56;5046303;28;20045;-59
2021/07/16 09:23:35;;;;;;;3.20;1.70;;;;;;;31.91;21.32;100282.44;5036138;28;20045;-60
2021/07/16 09:26:12;;;;;;;2.03;1.50;;;;;;;32.23;20.64;100293.50;5046266;28;20068;-60
2021/07/16 09:28:50;;;;;;;1.85;1.15;;;;;;;32.35;20.49;100288.41;5047938;28;20131;-58
2021/07/16 09:31:24;;;;;;;1.85;0.98;;;;;;;32.52;20.51;100296.81;5042905;28;20121;-58
2021/07/16 09:33:56;;;;;;;1.75;0.98;;;;;;;32.65;20.33;100305.72;5044115;28;20591;-58
2021/07/16 09:36:40;;;;;;;1.48;1.08;;;;;;;32.60;20.48;100297.50;5049750;28;20048;-58
2021/07/16 09:39:11;;;;;;;5.80;1.65;;;;;;;32.82;20.56;100303.75;5040972;28;20084;-59
2021/07/16 09:41:52;;;;;;;6.03;1.42;;;;;;;32.99;19.80;100299.78;5033906;28;20067;-59
2021/07/16 09:44:40;;;;;;;1.55;1.13;;;;;;;32.91;20.03;100300.28;5043410;28;20049;-60
2021/07/16 09:47:17;;;;;;;2.97;1.40;;;;;;;33.22;20.04;100298.91;5043092;28;20126;-59
2021/07/16 09:49:47;;;;;;;7.57;1.60;;;;;;;33.22;19.59;100295.22;5035973;28;20076;-60
2021/07/16 09:52:16;;;;;;;0.77;0.77;;;;;;;32.85;19.56;100285.50;5038342;28;20450;-58
2021/07/16 09:55:07;;;;;;;1.60;0.82;;;;;;;32.66;19.03;100298.66;5045477;28;20424;-58
2021/07/16 09:57:45;;;;;;;3.55;1.58;;;;;;;32.81;19.19;100299.22;5033134;28;20508;-59
2021/07/16 10:00:20;;;;;;;2.38;1.70;;;;;;;32.73;19.12;100304.31;5034310;28;20184;-59
2021/07/16 10:02:49;;;;;;;2.10;1.20;;;;;;;32.80;19.21;100303.38;5045973;28;20081;-59
2021/07/16 10:05:16;;;;;;;1.50;1.08;;;;;;;32.84;19.10;100329.34;5033297;28;20494;-59
2021/07/16 10:07:45;;;;;;;1.90;1.30;;;;;;;33.16;19.22;100314.31;5041295;28;20452;-59
2021/07/16 10:10:18;;;;;;;2.78;1.30;;;;;;;33.42;19.32;100306.81;5036052;28;20077;-58
2021/07/16 10:12:47;;;;;;;5.00;1.98;;;;;;;33.69;18.62;100316.22;5035367;28;20045;-59
2021/07/16 10:15:18;;;;;;;1.00;1.00;;;;;;;33.89;17.96;100329.88;5043206;28;20151;-59
2021/07/16 10:17:45;;;;;;;0.93;0.85;;;;;;;33.71;18.16;100331.06;5045512;28;20040;-59
2021/07/16 10:20:15;;;;;;;1.40;1.10;;;;;;;33.66;18.46;100308.41;5039149;28;20120;-59
2021/07/16 10:22:44;;;;;;;3.72;2.15;;;;;;;33.95;18.75;100322.31;5045595;28;20137;-59
2021/07/16 10:25:18;;;;;;;;;;;;;;;33.73;18.71;100311.16;5044460;28;20063;-59
2021/07/16 10:27:45;;;;;;;2.20;1.30;;;;;;;34.01;18.00;100323.41;5042274;28;20042;-60
2021/07/16 10:30:17;;;;;;;3.40;1.85;;;;;;;34.29;17.95;100307.47;5048017;28;20128;-59
2021/07/16 10:32:48;;;;;;;1.00;0.70;;;;;;;34.26;17.75;100307.53;5046829;28;20037;-59
2021/07/16 10:35:24;;;;;;;3.42;1.90;;;;;;;34.63;17.90;100315.78;5043343;28;20080;-59
2021/07/16 10:37:54;;;;;;;5.63;1.50;;;;;;;34.95;17.87;100299.66;5046003;28;20053;-59
2021/07/16 10:40:40;;;;;;;6.20;1.90;;;;;;;35.35;17.74;100313.91;5043313;28;20084;-59
2021/07/16 10:43:29;;;;;;;0.90;0.70;;;;;;;35.35;16.77;100317.66;5038722;28;20136;-59
2021/07/16 10:46:01;;;;;;;1.20;1.10;;;;;;;35.10;17.08;100315.41;5047701;28;20045;-59
2021/07/16 10:48:40;;;;;;;2.90;1.27;;;;;;;35.14;17.23;100310.34;5033629;28;20393;-58
2021/07/16 10:51:22;;;;;;;1.85;0.95;;;;;;;34.87;17.28;100313.53;5038311;28;20068;-60
2021/07/16 10:53:49;;;;;;;2.58;1.30;;;;;;;35.06;17.24;100319.69;5040379;28;20496;-59
2021/07/16 10:56:19;;;;;;;3.80;1.48;;;;;;;35.35;17.08;100314.75;5044177;28;20091;-60
2021/07/16 10:58:50;;;;;;;2.25;1.33;;;;;;;35.56;16.40;100315.47;5038518;28;20073;-60
2021/07/16 11:01:35;;;;;;;2.70;0.95;;;;;;;35.52;16.62;100312.66;5039832;28;20079;-59
2021/07/16 11:04:07;;;;;;;2.45;1.48;;;;;;;36.02;17.05;100314.09;5046527;28;20081;-59
2021/07/16 11:06:52;;;;;;;4.57;1.55;;;;;;;36.28;17.37;100305.41;5032731;28;20053;-59
2021/07/16 11:09:46;;;;;;;1.58;1.02;;;;;;;36.33;16.49;100295.28;5038660;28;20127;-59
2021/07/16 11:12:31;;;;;;;2.33;1.33;;;;;;;36.83;16.57;100294.47;5041619;28;20047;-59
2021/07/16 11:14:59;;;;;;;2.80;1.23;;;;;;;36.66;15.72;100310.44;5036301;28;20168;-59
2021/07/16 11:17:27;;;;;;;4.45;1.50;;;;;;;36.87;16.58;100324.25;5047143;28;20052;-59
2021/07/16 11:20:18;;;;;;;5.80;1.30;;;;;;;36.82;15.88;100298.63;5040965;28;20076;-59
2021/07/16 11:22:54;;;;;;;3.55;1.30;;;;;;;36.95;16.11;100304.44;5035082;28;20130;-59
2021/07/16 11:25:21;;;;;;;2.05;1.17;;;;;;;37.16;15.84;100315.34;5040899;28;20127;-59
2021/07/16 11:27:48;;;;;;;2.83;1.42;;;;;;;37.32;15.93;100301.91;5039224;28;20238;-59
2021/07/16 11:30:15;;;;;;;3.25;1.20;;;;;;;37.40;15.81;100303.28;5037024;28;20504;-59
2021/07/16 11:32:42;;;;;;;3.30;1.13;;;;;;;37.26;15.80;100307.53;5044482;28;20075;-59
2021/07/16 11:35:12;;;;;;;1.88;1.08;;;;;;;37.27;16.18;100308.34;5032462;28;20083;-59